Time;durP1;ratioP1;P1;durP2;ratioP2;P2;SDS_P1;SDS_P2;PMS_P1;PMS_P2;Temp;Humidity;BMP_temperature;BMP_pressure;BME280_temperature;BME280_humidity;BME280_pressure;Samples;Min_cycle;Max_cycle;Signal;HPM_P1;HPM_P2
2022/01/16 00:04:06;;;;;;;;;;;21.70;49.10;;;;;;5134194;27;19976;-42
2022/01/16 00:04:34;;;;;;;;;;;21.70;49.10;;;;;;5119622;27;19927;-42
2022/01/16 00:07:04;;;;;;;;;;;21.70;49.20;;;;;;5133970;27;19924;-42
2022/01/16 00:09:31;;;;;;;;;;;21.70;49.30;;;;;;5135260;27;19923;-43
2022/01/16 00:12:00;;;;;;;;;;;21.70;49.40;;;;;;5135016;27;19931;-42
2022/01/16 00:14:29;;;;;;;;;;;21.70;49.50;;;;;;5134686;27;19927;-42
2022/01/16 00:16:57;;;;;;;;;;;21.70;49.50;;;;;;5115789;27;19924;-42
2022/01/16 00:19:24;;;;;;;;;;;21.70;49.60;;;;;;5134669;28;19970;-41
2022/01/16 00:21:52;;;;;;;;;;;21.70;50.30;;;;;;5133652;28;19924;-42
2022/01/16 00:24:19;;;;;;;;;;;21.70;49.80;;;;;;5134785;28;19923;-41
2022/01/16 00:26:46;;;;;;;;;;;21.70;49.80;;;;;;5134854;28;19973;-42
2022/01/16 00:29:13;;;;;;;;;;;21.70;49.80;;;;;;5134416;28;19970;-42
2022/01/16 00:31:41;;;;;;;;;;;21.70;50.00;;;;;;5134011;28;20332;-40
2022/01/16 00:34:10;;;;;;;;;;;21.70;50.10;;;;;;5134507;28;19928;-42
2022/01/16 00:36:37;;;;;;;;;;;21.70;50.10;;;;;;5133428;28;19924;-42
2022/01/16 00:39:05;;;;;;;;;;;21.70;50.20;;;;;;5134696;28;20355;-43
2022/01/16 00:41:32;;;;;;;;;;;21.70;50.30;;;;;;5134757;28;19923;-43
2022/01/16 00:43:59;;;;;;;;;;;21.70;50.30;;;;;;5134692;28;19924;-42
2022/01/16 00:46:26;;;;;;;;;;;21.70;50.40;;;;;;5129683;28;19923;-41
2022/01/16 00:48:53;;;;;;;;;;;21.70;50.50;;;;;;5113721;28;20402;-42
2022/01/16 00:51:20;;;;;;;;;;;21.70;50.50;;;;;;5120208;28;19923;-41
2022/01/16 00:53:47;;;;;;;;;;;21.70;50.60;;;;;;5133908;28;20006;-42
2022/01/16 00:56:15;;;;;;;;;;;21.70;50.60;;;;;;5134420;28;20336;-41
2022/01/16 00:58:43;;;;;;;;;;;21.70;50.70;;;;;;5134231;28;19927;-41
2022/01/16 01:01:10;;;;;;;;;;;21.70;50.70;;;;;;5133721;28;19975;-41
2022/01/16 01:03:37;;;;;;;;;;;21.70;50.80;;;;;;5134537;28;19923;-44
2022/01/16 01:06:05;;;;;;;;;;;21.70;50.90;;;;;;5133206;28;19927;-43
2022/01/16 01:08:31;;;;;;;;;;;21.70;50.90;;;;;;5137236;27;20341;-42
2022/01/16 01:11:01;;;;;;;;;;;21.70;50.90;;;;;;5138249;27;19927;-46
2022/01/16 01:16:02;;;;;;;;;;;21.70;51.10;;;;;;5137953;27;20006;-41
2022/01/16 01:18:30;;;;;;;;;;;21.70;51.10;;;;;;5137192;27;19968;-41
2022/01/16 01:20:59;;;;;;;;;;;21.70;51.10;;;;;;5136803;27;19976;-45
2022/01/16 01:23:26;;;;;;;;;;;21.70;51.20;;;;;;5137964;27;20362;-42
2022/01/16 01:25:53;;;;;;;;;;;21.70;51.10;;;;;;5137937;27;20282;-44
2022/01/16 01:28:20;;;;;;;;;;;21.70;51.20;;;;;;5138062;27;19923;-42
2022/01/16 01:30:47;;;;;;;;;;;21.70;51.10;;;;;;5137906;27;19978;-42
2022/01/16 01:33:18;;;;;;;;;;;21.70;51.10;;;;;;5137123;27;19923;-40
2022/01/16 01:35:45;;;;;;;;;;;21.70;51.10;;;;;;5137536;27;19988;-44
2022/01/16 01:38:17;;;;;;;;;;;21.70;51.20;;;;;;5136495;27;19966;-42
2022/01/16 01:40:47;;;;;;;;;;;21.70;51.20;;;;;;5137792;27;19923;-41
2022/01/16 01:51:17;;;;;;;;;;;21.70;51.30;;;;;;5136328;27;19981;-43
2022/01/16 01:53:44;;;;;;;;;;;21.60;51.20;;;;;;5136970;27;19924;-44
2022/01/16 01:56:14;;;;;;;;;;;21.60;51.10;;;;;;5137567;27;20332;-44
2022/01/16 01:58:41;;;;;;;;;;;21.60;51.10;;;;;;5137187;27;19927;-43
2022/01/16 02:01:08;;;;;;;;;;;21.60;51.10;;;;;;5137170;27;19927;-44
2022/01/16 02:06:24;;;;;;;;;;;21.60;51.00;;;;;;5137404;27;19924;-41
2022/01/16 02:08:59;;;;;;;;;;;21.60;51.00;;;;;;5116771;28;20287;-42
2022/01/16 02:11:28;;;;;;;;;;;21.60;50.90;;;;;;5116747;28;19924;-43
2022/01/16 02:14:09;;;;;;;;;;;21.60;50.90;;;;;;5116357;28;19974;-50
2022/01/16 02:28:48;;;;;;;;;;;21.60;50.60;;;;;;5137520;27;19923;-48
2022/01/16 02:35:53;;;;;;;;;;;21.60;50.50;;;;;;5137063;27;19992;-45
2022/01/16 02:38:21;;;;;;;;;;;21.50;50.40;;;;;;5135639;27;19929;-45
2022/01/16 02:40:54;;;;;;;;;;;21.50;50.40;;;;;;5136331;27;19967;-47
2022/01/16 02:43:29;;;;;;;;;;;21.50;50.30;;;;;;5136654;27;19923;-49
2022/01/16 02:46:35;;;;;;;;;;;21.50;50.30;;;;;;5136239;27;19968;-45
2022/01/16 02:48:46;;;;;;;;;;;21.50;50.30;;;;;;5135456;27;19945;-43
2022/01/16 02:51:18;;;;;;;;;;;21.50;50.30;;;;;;5136398;27;19927;-42
2022/01/16 02:53:46;;;;;;;;;;;21.50;50.20;;;;;;5134695;27;19927;-44
2022/01/16 02:56:13;;;;;;;;;;;21.50;50.10;;;;;;5118207;27;19971;-43
2022/01/16 02:58:41;;;;;;;;;;;21.50;50.10;;;;;;5135995;27;19924;-45
2022/01/16 03:01:08;;;;;;;;;;;21.50;50.10;;;;;;5118155;27;19930;-41
2022/01/16 03:03:36;;;;;;;;;;;21.50;50.10;;;;;;5135183;27;19923;-42
2022/01/16 03:06:03;;;;;;;;;;;21.50;50.10;;;;;;5136173;27;20263;-43
2022/01/16 03:08:30;;;;;;;;;;;21.50;50.00;;;;;;5134788;27;19924;-48
2022/01/16 03:13:31;;;;;;;;;;;21.50;49.90;;;;;;5135737;27;19978;-42
2022/01/16 03:15:58;;;;;;;;;;;21.50;49.90;;;;;;5118297;27;20379;-44
2022/01/16 03:23:43;;;;;;;;;;;21.50;49.80;;;;;;5134450;27;19931;-43
2022/01/16 03:26:10;;;;;;;;;;;21.50;49.80;;;;;;5135465;27;19959;-43
2022/01/16 03:28:37;;;;;;;;;;;21.40;49.70;;;;;;5135446;27;20006;-41
2022/01/16 03:31:04;;;;;;;;;;;21.40;49.70;;;;;;5135112;27;20324;-42
2022/01/16 03:33:31;;;;;;;;;;;21.40;49.60;;;;;;5134928;27;20014;-42
2022/01/16 03:35:58;;;;;;;;;;;21.40;49.60;;;;;;5135636;27;20286;-42
2022/01/16 03:38:25;;;;;;;;;;;21.40;49.60;;;;;;5134108;27;19923;-42
2022/01/16 03:40:52;;;;;;;;;;;21.40;49.60;;;;;;5135540;27;19970;-40
2022/01/16 03:43:19;;;;;;;;;;;21.40;49.60;;;;;;5136347;27;19972;-41
2022/01/16 03:45:46;;;;;;;;;;;21.40;49.60;;;;;;5135175;27;19927;-44
2022/01/16 03:48:14;;;;;;;;;;;21.40;49.50;;;;;;5134358;27;19923;-43
2022/01/16 03:50:41;;;;;;;;;;;21.40;49.50;;;;;;5135025;27;19923;-45
2022/01/16 03:53:08;;;;;;;;;;;21.40;49.50;;;;;;5133765;27;20429;-40
2022/01/16 03:55:35;;;;;;;;;;;21.40;49.50;;;;;;5135196;27;19923;-46
2022/01/16 03:58:03;;;;;;;;;;;21.40;49.40;;;;;;5134933;27;20017;-41
2022/01/16 04:00:30;;;;;;;;;;;21.40;49.40;;;;;;5135215;27;19924;-43
2022/01/16 04:02:57;;;;;;;;;;;21.40;49.40;;;;;;5134896;27;19946;-41
2022/01/16 04:05:24;;;;;;;;;;;21.40;49.40;;;;;;5134418;27;19992;-41
2022/01/16 04:07:51;;;;;;;;;;;21.40;49.40;;;;;;5133670;27;19974;-42
2022/01/16 04:10:21;;;;;;;;;;;21.40;49.40;;;;;;5134768;27;20453;-41
2022/01/16 04:12:48;;;;;;;;;;;21.40;49.30;;;;;;5134741;27;19967;-43
2022/01/16 04:17:45;;;;;;;;;;;21.40;49.30;;;;;;5134708;27;19923;-40
2022/01/16 04:20:16;;;;;;;;;;;21.40;49.30;;;;;;5133758;28;20389;-41
2022/01/16 04:22:45;;;;;;;;;;;21.40;49.20;;;;;;5134545;28;20378;-41
2022/01/16 04:25:12;;;;;;;;;;;21.30;49.20;;;;;;5133829;28;19978;-42
2022/01/16 04:27:39;;;;;;;;;;;21.40;49.20;;;;;;5116465;28;20022;-43
2022/01/16 04:30:07;;;;;;;;;;;21.30;49.10;;;;;;5134511;28;20393;-40
2022/01/16 04:32:33;;;;;;;;;;;21.40;49.20;;;;;;5134567;28;20394;-41
2022/01/16 04:35:00;;;;;;;;;;;21.30;49.00;;;;;;5115977;28;19923;-42
2022/01/16 04:37:27;;;;;;;;;;;21.30;49.10;;;;;;5134818;28;19924;-44
2022/01/16 04:40:00;;;;;;;;;;;21.30;49.00;;;;;;5133491;28;19966;-45
2022/01/16 04:45:13;;;;;;;;;;;21.30;49.00;;;;;;5138660;27;19976;-43
2022/01/16 04:47:40;;;;;;;;;;;21.30;49.00;;;;;;5138914;27;20335;-43
2022/01/16 04:50:13;;;;;;;;;;;21.30;49.00;;;;;;5137762;27;20433;-41
2022/01/16 04:52:42;;;;;;;;;;;21.30;49.00;;;;;;5138415;27;19931;-46
2022/01/16 04:55:10;;;;;;;;;;;21.30;49.00;;;;;;5137618;27;19974;-44
2022/01/16 04:57:37;;;;;;;;;;;21.30;48.90;;;;;;5138712;27;19927;-43
2022/01/16 05:00:06;;;;;;;;;;;21.30;48.90;;;;;;5138680;27;20332;-44
2022/01/16 05:02:33;;;;;;;;;;;21.30;48.90;;;;;;5138288;27;20443;-42
2022/01/16 05:05:00;;;;;;;;;;;21.30;48.80;;;;;;5128732;27;19930;-44
2022/01/16 05:07:27;;;;;;;;;;;21.30;48.90;;;;;;5117945;28;20010;-42
2022/01/16 05:09:54;;;;;;;;;;;21.30;48.80;;;;;;5130181;27;19924;-42
2022/01/16 05:12:30;;;;;;;;;;;21.30;48.80;;;;;;5138123;27;19966;-43
2022/01/16 05:17:42;;;;;;;;;;;21.30;48.80;;;;;;5138037;27;20430;-44
2022/01/16 05:20:09;;;;;;;;;;;21.30;48.80;;;;;;5137190;27;19993;-41
2022/01/16 05:22:36;;;;;;;;;;;21.30;48.80;;;;;;5138046;27;19955;-42
2022/01/16 05:25:05;;;;;;;;;;;21.30;48.80;;;;;;5136934;27;20065;-44
2022/01/16 05:27:31;;;;;;;;;;;21.30;48.80;;;;;;5138130;27;20010;-50
2022/01/16 05:29:58;;;;;;;;;;;21.30;48.70;;;;;;5137991;27;20013;-47
2022/01/16 05:32:25;;;;;;;;;;;21.30;48.70;;;;;;5137734;27;19923;-47
2022/01/16 05:34:52;;;;;;;;;;;21.30;48.70;;;;;;5136915;27;20014;-50
2022/01/16 05:37:19;;;;;;;;;;;21.30;48.70;;;;;;5137938;27;20283;-51
2022/01/16 05:39:47;;;;;;;;;;;21.30;48.60;;;;;;5136811;27;20025;-45
2022/01/16 05:42:19;;;;;;;;;;;21.30;48.70;;;;;;5137897;27;19927;-42
2022/01/16 05:44:46;;;;;;;;;;;21.30;48.60;;;;;;5137791;27;19998;-45
2022/01/16 05:47:13;;;;;;;;;;;21.20;48.60;;;;;;5137473;27;20378;-44
2022/01/16 05:49:41;;;;;;;;;;;21.20;48.60;;;;;;5136628;27;20413;-44
2022/01/16 05:52:08;;;;;;;;;;;21.20;48.60;;;;;;5137401;27;20014;-47
2022/01/16 05:54:35;;;;;;;;;;;21.30;48.60;;;;;;5135925;27;20339;-45
2022/01/16 05:57:02;;;;;;;;;;;21.20;48.50;;;;;;5137257;27;19963;-45
2022/01/16 05:59:29;;;;;;;;;;;21.20;48.50;;;;;;5137224;27;20453;-46
2022/01/16 06:01:56;;;;;;;;;;;21.20;48.50;;;;;;5137175;27;19930;-44
2022/01/16 06:04:23;;;;;;;;;;;21.20;48.50;;;;;;5137431;27;19923;-44
2022/01/16 06:06:49;;;;;;;;;;;21.20;48.50;;;;;;5136583;27;19927;-45
2022/01/16 06:09:16;;;;;;;;;;;21.20;48.50;;;;;;5136287;27;19969;-41
2022/01/16 06:11:43;;;;;;;;;;;21.20;48.50;;;;;;5136896;27;19983;-42
2022/01/16 06:14:10;;;;;;;;;;;21.20;48.40;;;;;;5136902;27;20019;-43
2022/01/16 06:16:38;;;;;;;;;;;21.20;48.40;;;;;;5136862;27;19966;-44
2022/01/16 06:19:05;;;;;;;;;;;21.20;48.40;;;;;;5136599;27;19923;-44
2022/01/16 06:21:32;;;;;;;;;;;21.20;48.50;;;;;;5136215;27;20446;-43
2022/01/16 06:23:59;;;;;;;;;;;21.20;48.40;;;;;;5136716;27;20107;-41
2022/01/16 06:26:26;;;;;;;;;;;21.20;48.40;;;;;;5135623;27;19974;-43
2022/01/16 06:28:52;;;;;;;;;;;21.20;48.40;;;;;;5136954;27;19990;-45
2022/01/16 06:31:19;;;;;;;;;;;21.20;48.40;;;;;;5136823;27;20305;-49
2022/01/16 06:33:46;;;;;;;;;;;21.20;48.40;;;;;;5136884;27;19977;-42
2022/01/16 06:36:13;;;;;;;;;;;21.20;48.40;;;;;;5135760;27;19923;-44
2022/01/16 06:38:40;;;;;;;;;;;21.20;48.40;;;;;;5136789;27;20007;-43
2022/01/16 06:41:08;;;;;;;;;;;21.20;48.40;;;;;;5135352;27;19949;-43
2022/01/16 06:43:35;;;;;;;;;;;21.20;48.30;;;;;;5137215;27;19976;-44
2022/01/16 06:46:02;;;;;;;;;;;21.20;48.30;;;;;;5136321;27;19923;-50
2022/01/16 06:48:30;;;;;;;;;;;21.20;48.30;;;;;;5136568;27;19931;-41
2022/01/16 06:50:57;;;;;;;;;;;21.20;48.30;;;;;;5135421;27;19924;-42
2022/01/16 06:53:24;;;;;;;;;;;21.20;48.30;;;;;;5135857;27;19923;-46
2022/01/16 06:55:51;;;;;;;;;;;21.20;48.30;;;;;;5135450;27;20353;-42
2022/01/16 06:58:18;;;;;;;;;;;21.20;48.30;;;;;;5136050;27;19970;-44
2022/01/16 07:00:46;;;;;;;;;;;21.20;48.30;;;;;;5136013;27;19945;-41
2022/01/16 07:03:16;;;;;;;;;;;21.20;48.20;;;;;;5136010;27;19929;-41
2022/01/16 07:05:44;;;;;;;;;;;21.20;48.30;;;;;;5116743;27;20382;-41
2022/01/16 07:08:11;;;;;;;;;;;21.20;48.20;;;;;;5135860;27;19928;-42
2022/01/16 07:10:38;;;;;;;;;;;21.20;48.20;;;;;;5134639;27;19927;-42
2022/01/16 07:13:05;;;;;;;;;;;21.20;48.20;;;;;;5136072;27;20352;-41
2022/01/16 07:15:32;;;;;;;;;;;21.20;48.20;;;;;;5136039;27;19976;-42
2022/01/16 07:17:59;;;;;;;;;;;21.20;48.20;;;;;;5117485;27;19927;-41
2022/01/16 07:20:26;;;;;;;;;;;21.10;48.10;;;;;;5135050;27;19924;-41
2022/01/16 07:22:53;;;;;;;;;;;21.20;48.20;;;;;;5117022;27;19968;-43
2022/01/16 07:25:20;;;;;;;;;;;21.20;48.10;;;;;;5134736;27;20022;-41
2022/01/16 07:27:47;;;;;;;;;;;21.20;48.10;;;;;;5135444;27;20291;-43
2022/01/16 07:30:14;;;;;;;;;;;21.20;48.10;;;;;;5135412;27;19923;-42
2022/01/16 07:32:41;;;;;;;;;;;21.20;48.10;;;;;;5135605;27;19962;-42
2022/01/16 07:35:08;;;;;;;;;;;21.10;48.00;;;;;;5136228;27;20017;-41
2022/01/16 07:37:55;;;;;;;;;;;21.10;48.00;;;;;;5134557;27;19924;-46
2022/01/16 07:40:22;;;;;;;;;;;21.20;48.10;;;;;;5134027;27;20059;-41
2022/01/16 07:42:49;;;;;;;;;;;21.10;48.00;;;;;;5135517;27;19924;-42
2022/01/16 07:45:16;;;;;;;;;;;21.20;48.10;;;;;;5135519;27;19928;-41
2022/01/16 07:47:43;;;;;;;;;;;21.10;47.90;;;;;;5135438;27;20002;-43
2022/01/16 07:50:11;;;;;;;;;;;21.10;48.00;;;;;;5135094;27;19971;-42
2022/01/16 07:52:47;;;;;;;;;;;21.10;47.90;;;;;;5134107;27;19976;-42
2022/01/16 07:55:15;;;;;;;;;;;21.10;47.90;;;;;;5133936;27;20014;-43
2022/01/16 07:57:43;;;;;;;;;;;21.10;47.90;;;;;;5135300;27;19923;-43
2022/01/16 08:00:29;;;;;;;;;;;21.10;47.80;;;;;;5135889;27;19923;-43
2022/01/16 08:02:57;;;;;;;;;;;21.10;47.80;;;;;;5134891;27;20006;-43
2022/01/16 08:05:25;;;;;;;;;;;21.20;47.90;;;;;;5135215;27;20002;-42
2022/01/16 08:07:52;;;;;;;;;;;21.10;47.80;;;;;;5134365;27;19970;-43
2022/01/16 08:10:19;;;;;;;;;;;21.20;47.90;;;;;;5134316;27;20015;-40
2022/01/16 08:12:46;;;;;;;;;;;21.10;47.70;;;;;;5134744;27;19946;-42
2022/01/16 08:15:13;;;;;;;;;;;21.10;47.70;;;;;;5134739;27;19955;-42
2022/01/16 08:17:40;;;;;;;;;;;21.20;47.80;;;;;;5134820;27;19966;-43
2022/01/16 08:20:08;;;;;;;;;;;21.20;47.70;;;;;;5134532;27;19924;-43
2022/01/16 08:22:36;;;;;;;;;;;21.20;47.70;;;;;;5133745;28;19927;-42
2022/01/16 08:25:04;;;;;;;;;;;21.20;47.70;;;;;;5134535;28;19924;-41
2022/01/16 08:27:31;;;;;;;;;;;21.20;47.70;;;;;;5133537;28;19923;-45
2022/01/16 08:30:05;;;;;;;;;;;21.20;47.70;;;;;;5135000;28;20059;-40
2022/01/16 08:32:32;;;;;;;;;;;21.20;47.60;;;;;;5134502;28;19924;-46
2022/01/16 08:35:00;;;;;;;;;;;21.20;47.60;;;;;;5134918;28;20348;-42
2022/01/16 08:37:27;;;;;;;;;;;21.20;47.60;;;;;;5133796;28;19924;-43
2022/01/16 08:39:54;;;;;;;;;;;21.20;47.50;;;;;;5134867;28;19923;-48
2022/01/16 08:42:21;;;;;;;;;;;21.20;47.50;;;;;;5133381;28;19972;-47
2022/01/16 08:44:49;;;;;;;;;;;21.20;47.50;;;;;;5134477;28;19923;-50
2022/01/16 08:47:17;;;;;;;;;;;21.20;47.50;;;;;;5134444;28;20375;-49
2022/01/16 08:49:44;;;;;;;;;;;21.20;47.50;;;;;;5134754;28;19973;-45
2022/01/16 08:52:13;;;;;;;;;;;21.20;47.40;;;;;;5133717;28;19938;-47
2022/01/16 08:54:40;;;;;;;;;;;21.20;47.30;;;;;;5134560;28;19935;-50
2022/01/16 08:57:07;;;;;;;;;;;21.20;47.30;;;;;;5133283;28;19924;-47
2022/01/16 08:59:34;;;;;;;;;;;21.20;47.30;;;;;;5134354;28;19923;-48
2022/01/16 09:02:01;;;;;;;;;;;21.20;47.30;;;;;;5134628;28;19972;-46
2022/01/16 09:04:28;;;;;;;;;;;21.20;47.20;;;;;;5135177;28;19930;-45
2022/01/16 09:06:55;;;;;;;;;;;21.30;47.20;;;;;;5133535;28;19973;-46
2022/01/16 09:09:22;;;;;;;;;;;21.30;47.10;;;;;;5134276;28;19927;-42
2022/01/16 09:11:49;;;;;;;;;;;21.30;47.10;;;;;;5133091;28;19927;-42
2022/01/16 09:14:19;;;;;;;;;;;21.30;47.10;;;;;;5135085;28;20014;-47
2022/01/16 09:16:46;;;;;;;;;;;21.30;47.00;;;;;;5134181;28;19972;-41
2022/01/16 09:19:13;;;;;;;;;;;21.30;47.00;;;;;;5134080;28;19931;-40
2022/01/16 09:21:40;;;;;;;;;;;21.30;46.90;;;;;;5133981;28;19923;-42
2022/01/16 09:24:06;;;;;;;;;;;21.30;46.90;;;;;;5115102;28;19924;-47
2022/01/16 09:26:35;;;;;;;;;;;21.30;46.80;;;;;;5133296;28;19927;-41
2022/01/16 09:29:03;;;;;;;;;;;21.30;46.80;;;;;;5135959;27;19977;-41
2022/01/16 09:31:30;;;;;;;;;;;21.40;46.80;;;;;;5137652;27;20038;-47
2022/01/16 09:33:59;;;;;;;;;;;21.40;46.80;;;;;;5137721;27;19938;-42
2022/01/16 09:36:27;;;;;;;;;;;21.40;46.70;;;;;;5137664;27;19973;-40
2022/01/16 09:38:54;;;;;;;;;;;21.40;46.70;;;;;;5121030;27;19927;-40
2022/01/16 09:41:21;;;;;;;;;;;21.40;46.60;;;;;;5117269;27;19996;-46
2022/01/16 09:43:49;;;;;;;;;;;21.40;46.70;;;;;;5116972;28;20019;-46
2022/01/16 09:46:16;;;;;;;;;;;21.40;46.50;;;;;;5116954;28;20375;-42
2022/01/16 09:48:43;;;;;;;;;;;21.40;46.50;;;;;;5117212;28;19924;-46
2022/01/16 09:51:10;;;;;;;;;;;21.40;46.40;;;;;;5117067;28;19931;-41
2022/01/16 09:53:40;;;;;;;;;;;21.40;46.40;;;;;;5128159;27;19930;-42
2022/01/16 09:56:07;;;;;;;;;;;21.50;46.40;;;;;;5137644;27;19970;-47
2022/01/16 09:58:34;;;;;;;;;;;21.50;46.40;;;;;;5136146;27;19927;-43
2022/01/16 10:01:02;;;;;;;;;;;21.50;46.40;;;;;;5138112;27;20004;-44
2022/01/16 10:03:35;;;;;;;;;;;21.50;46.40;;;;;;5138007;27;19923;-41
2022/01/16 10:06:10;;;;;;;;;;;21.50;46.30;;;;;;5137444;27;19931;-42
2022/01/16 10:08:38;;;;;;;;;;;21.50;46.30;;;;;;5125558;27;19924;-43
2022/01/16 10:11:24;;;;;;;;;;;21.50;46.20;;;;;;5117536;28;19923;-43
2022/01/16 10:14:07;;;;;;;;;;;21.50;46.80;;;;;;5134646;27;19924;-43
2022/01/16 10:16:40;;;;;;;;;;;21.50;46.10;;;;;;5136944;27;19923;-41
2022/01/16 10:19:33;;;;;;;;;;;21.50;46.10;;;;;;5136981;27;19923;-44
2022/01/16 10:22:04;;;;;;;;;;;21.60;46.10;;;;;;5132934;27;20450;-43
2022/01/16 10:24:34;;;;;;;;;;;21.60;46.10;;;;;;5135667;27;19927;-43
2022/01/16 10:27:07;;;;;;;;;;;21.60;46.00;;;;;;5117784;27;20219;-44
2022/01/16 10:29:42;;;;;;;;;;;21.60;46.00;;;;;;5136697;27;19967;-42
2022/01/16 10:32:10;;;;;;;;;;;21.60;46.00;;;;;;5136532;27;20431;-45
2022/01/16 10:34:37;;;;;;;;;;;21.60;45.90;;;;;;5136872;27;19938;-43
2022/01/16 10:37:24;;;;;;;;;;;21.60;45.90;;;;;;5137684;27;19972;-41
2022/01/16 10:39:52;;;;;;;;;;;21.60;45.80;;;;;;5117486;27;19923;-42
2022/01/16 10:42:19;;;;;;;;;;;21.70;45.90;;;;;;5135335;27;19927;-42
2022/01/16 10:44:53;;;;;;;;;;;21.70;45.80;;;;;;5118176;27;19927;-42
2022/01/16 10:47:25;;;;;;;;;;;21.70;45.80;;;;;;5136368;27;19927;-41
2022/01/16 10:50:03;;;;;;;;;;;21.70;45.80;;;;;;5136576;27;19955;-44
2022/01/16 10:52:31;;;;;;;;;;;21.70;45.70;;;;;;5136852;27;19967;-41
2022/01/16 10:55:05;;;;;;;;;;;21.70;45.70;;;;;;5117951;27;19923;-42
2022/01/16 10:57:32;;;;;;;;;;;21.70;45.60;;;;;;5118379;27;20290;-42
2022/01/16 11:00:08;;;;;;;;;;;21.70;45.60;;;;;;5136353;27;19967;-44
2022/01/16 11:02:35;;;;;;;;;;;21.70;45.60;;;;;;5136009;27;19976;-43
2022/01/16 11:05:10;;;;;;;;;;;21.70;45.50;;;;;;5136262;27;19924;-45
2022/01/16 11:07:38;;;;;;;;;;;21.70;45.50;;;;;;5135915;27;19953;-44
2022/01/16 11:10:23;;;;;;;;;;;21.80;45.50;;;;;;5135104;27;19923;-44
2022/01/16 11:12:50;;;;;;;;;;;21.80;45.50;;;;;;5135288;27;19924;-44
2022/01/16 11:15:18;;;;;;;;;;;21.80;45.50;;;;;;5135732;27;19923;-43
2022/01/16 11:17:45;;;;;;;;;;;21.80;45.40;;;;;;5135693;27;19927;-44
2022/01/16 11:20:13;;;;;;;;;;;21.80;45.40;;;;;;5135455;27;19924;-42
2022/01/16 11:23:05;;;;;;;;;;;21.80;45.30;;;;;;5135403;27;19931;-45
2022/01/16 11:25:34;;;;;;;;;;;21.80;45.30;;;;;;5134911;27;19923;-45
2022/01/16 11:28:02;;;;;;;;;;;21.80;45.30;;;;;;5134440;27;19928;-42
2022/01/16 11:30:31;;;;;;;;;;;21.90;45.30;;;;;;5135472;27;20449;-45
2022/01/16 11:32:59;;;;;;;;;;;21.90;45.30;;;;;;5135641;27;19976;-46
2022/01/16 11:35:26;;;;;;;;;;;21.90;45.30;;;;;;5135364;27;19962;-45
2022/01/16 11:37:54;;;;;;;;;;;21.90;45.20;;;;;;5135636;27;19924;-45
2022/01/16 11:40:37;;;;;;;;;;;21.90;45.80;;;;;;5134713;27;19946;-44
2022/01/16 11:43:10;;;;;;;;;;;21.90;45.20;;;;;;5134538;27;19961;-43
2022/01/16 11:45:54;;;;;;;;;;;21.90;45.20;;;;;;5135254;27;19979;-42
2022/01/16 11:48:36;;;;;;;;;;;21.90;45.10;;;;;;5135446;27;19927;-46
2022/01/16 11:51:32;;;;;;;;;;;21.90;45.00;;;;;;5134622;27;19930;-42
2022/01/16 11:54:05;;;;;;;;;;;22.00;45.10;;;;;;5134090;27;19927;-42
2022/01/16 11:56:41;;;;;;;;;;;22.00;45.10;;;;;;5134993;27;20014;-51
2022/01/16 11:59:11;;;;;;;;;;;22.00;45.00;;;;;;5134207;27;19923;-51
2022/01/16 12:01:43;;;;;;;;;;;22.00;45.00;;;;;;5134962;27;19923;-48
2022/01/16 12:04:29;;;;;;;;;;;22.00;44.90;;;;;;5135220;27;19927;-51
2022/01/16 12:06:59;;;;;;;;;;;22.00;44.90;;;;;;5135240;27;20002;-44
2022/01/16 12:09:35;;;;;;;;;;;22.00;44.90;;;;;;5128536;27;19924;-51
2022/01/16 12:12:03;;;;;;;;;;;22.00;44.80;;;;;;5114244;28;19924;-47
2022/01/16 12:14:49;;;;;;;;;;;22.00;44.80;;;;;;5126687;27;19934;-48
2022/01/16 12:17:44;;;;;;;;;;;22.10;44.80;;;;;;5134762;27;19924;-43
2022/01/16 12:20:15;;;;;;;;;;;22.10;44.80;;;;;;5134709;27;19999;-43
2022/01/16 12:22:42;;;;;;;;;;;22.10;44.70;;;;;;5134562;27;19924;-45
2022/01/16 12:25:16;;;;;;;;;;;22.10;44.70;;;;;;5134118;28;19923;-41
2022/01/16 12:27:45;;;;;;;;;;;22.10;44.70;;;;;;5134946;28;20043;-44
2022/01/16 12:30:35;;;;;;;;;;;22.10;44.70;;;;;;5133477;28;19927;-42
2022/01/16 12:33:08;;;;;;;;;;;22.10;44.60;;;;;;5134862;28;19927;-43
2022/01/16 12:35:41;;;;;;;;;;;22.10;44.50;;;;;;5134616;28;19923;-41
2022/01/16 12:38:10;;;;;;;;;;;22.10;44.60;;;;;;5134812;28;19923;-46
2022/01/16 12:40:38;;;;;;;;;;;22.10;44.50;;;;;;5121321;28;19977;-40
2022/01/16 12:43:10;;;;;;;;;;;22.20;44.60;;;;;;5113983;28;19924;-46
2022/01/16 12:45:40;;;;;;;;;;;22.10;44.50;;;;;;5133447;28;19966;-40
2022/01/16 12:48:08;;;;;;;;;;;22.20;44.60;;;;;;5134513;28;19923;-44
2022/01/16 12:50:37;;;;;;;;;;;22.20;44.50;;;;;;5134730;28;19924;-43
2022/01/16 12:53:04;;;;;;;;;;;22.20;44.50;;;;;;5134356;28;20062;-43
2022/01/16 12:55:33;;;;;;;;;;;22.20;44.40;;;;;;5133770;28;19923;-47
2022/01/16 12:58:15;;;;;;;;;;;22.20;44.50;;;;;;5134390;28;19931;-42
2022/01/16 13:00:58;;;;;;;;;;;22.20;44.40;;;;;;5133230;28;19931;-42
2022/01/16 13:03:25;;;;;;;;;;;22.20;44.40;;;;;;5117502;27;20359;-41
2022/01/16 13:06:12;;;;;;;;;;;22.20;44.40;;;;;;5138296;27;19923;-41
2022/01/16 13:08:59;;;;;;;;;;;22.20;44.40;;;;;;5138323;27;19923;-41
2022/01/16 13:11:29;;;;;;;;;;;22.20;44.30;;;;;;5137800;27;19923;-42
2022/01/16 13:13:56;;;;;;;;;;;22.20;44.30;;;;;;5137236;27;20409;-41
2022/01/16 13:16:25;;;;;;;;;;;22.20;44.40;;;;;;5138420;27;20264;-43
2022/01/16 13:19:12;;;;;;;;;;;22.20;44.40;;;;;;5138216;27;19955;-42
2022/01/16 13:22:11;;;;;;;;;;;22.20;44.40;;;;;;5137793;27;19924;-42
2022/01/16 13:24:41;;;;;;;;;;;22.20;44.40;;;;;;5136648;27;20305;-42
2022/01/16 13:27:13;;;;;;;;;;;22.20;44.40;;;;;;5117343;28;20264;-40
2022/01/16 13:29:47;;;;;;;;;;;22.20;44.40;;;;;;5124168;27;20399;-42
2022/01/16 13:32:16;;;;;;;;;;;22.20;44.40;;;;;;5137721;27;19924;-42
2022/01/16 13:34:48;;;;;;;;;;;22.20;44.40;;;;;;5138055;27;19978;-41
2022/01/16 13:37:17;;;;;;;;;;;22.20;44.40;;;;;;5138053;27;19924;-41
2022/01/16 13:39:56;;;;;;;;;;;22.20;44.50;;;;;;5137208;27;19931;-41
2022/01/16 13:42:29;;;;;;;;;;;22.20;44.40;;;;;;5137937;27;19938;-44
2022/01/16 13:45:15;;;;;;;;;;;22.20;44.50;;;;;;5136520;27;19930;-41
2022/01/16 13:48:01;;;;;;;;;;;22.20;44.40;;;;;;5138369;27;19976;-42
2022/01/16 13:50:30;;;;;;;;;;;22.20;44.40;;;;;;5137731;27;19938;-42
2022/01/16 13:53:05;;;;;;;;;;;22.20;44.50;;;;;;5137337;27;20332;-41
2022/01/16 13:55:43;;;;;;;;;;;22.20;44.40;;;;;;5137120;27;19923;-45
2022/01/16 13:58:18;;;;;;;;;;;22.20;44.40;;;;;;5137326;27;20014;-41
2022/01/16 14:00:45;;;;;;;;;;;22.20;44.50;;;;;;5136229;27;19969;-41
2022/01/16 14:03:12;;;;;;;;;;;22.20;44.50;;;;;;5137265;27;19924;-42
2022/01/16 14:05:40;;;;;;;;;;;22.20;44.50;;;;;;5137490;27;20313;-43
2022/01/16 14:08:16;;;;;;;;;;;22.20;44.50;;;;;;5137082;27;19972;-43
2022/01/16 14:10:43;;;;;;;;;;;22.20;44.50;;;;;;5136623;27;19931;-42
2022/01/16 14:13:10;;;;;;;;;;;22.20;44.40;;;;;;5137221;27;20018;-42
2022/01/16 14:15:38;;;;;;;;;;;22.20;44.40;;;;;;5135485;27;20450;-44
2022/01/16 14:18:12;;;;;;;;;;;22.20;44.40;;;;;;5136918;27;19924;-42
2022/01/16 14:20:49;;;;;;;;;;;22.20;44.40;;;;;;5136705;27;19966;-42
2022/01/16 14:23:16;;;;;;;;;;;22.20;44.40;;;;;;5136874;27;19924;-40
2022/01/16 14:25:43;;;;;;;;;;;22.20;44.40;;;;;;5136019;27;19939;-42
2022/01/16 14:28:10;;;;;;;;;;;22.10;44.30;;;;;;5137028;27;20018;-42
2022/01/16 14:30:37;;;;;;;;;;;22.20;44.40;;;;;;5135895;27;19946;-42
2022/01/16 14:33:04;;;;;;;;;;;22.20;44.40;;;;;;5136854;27;19924;-41
2022/01/16 14:35:31;;;;;;;;;;;22.20;44.40;;;;;;5136897;27;20340;-42
2022/01/16 14:37:58;;;;;;;;;;;22.10;44.30;;;;;;5136500;27;20018;-42
2022/01/16 14:40:25;;;;;;;;;;;22.10;44.30;;;;;;5136067;27;19924;-40
2022/01/16 14:42:59;;;;;;;;;;;22.10;44.30;;;;;;5136195;27;19976;-41
2022/01/16 14:45:46;;;;;;;;;;;22.10;44.30;;;;;;5135251;27;19963;-41
2022/01/16 14:48:13;;;;;;;;;;;22.10;44.30;;;;;;5136607;27;19972;-42
2022/01/16 14:50:40;;;;;;;;;;;22.10;44.30;;;;;;5136567;27;19984;-42
2022/01/16 14:53:07;;;;;;;;;;;22.10;44.30;;;;;;5136181;27;19923;-41
2022/01/16 14:55:36;;;;;;;;;;;22.10;44.30;;;;;;5136474;27;19988;-41
2022/01/16 14:58:03;;;;;;;;;;;22.10;44.30;;;;;;5115575;28;20290;-47
2022/01/16 15:00:30;;;;;;;;;;;22.10;44.30;;;;;;5121230;27;19924;-41
2022/01/16 15:02:58;;;;;;;;;;;22.10;44.30;;;;;;5136604;27;19923;-43
2022/01/16 15:05:25;;;;;;;;;;;22.10;44.30;;;;;;5135951;27;19996;-51
2022/01/16 15:07:52;;;;;;;;;;;22.10;44.30;;;;;;5136184;27;19931;-52
2022/01/16 15:10:19;;;;;;;;;;;22.10;44.30;;;;;;5136184;27;19973;-49
2022/01/16 15:12:46;;;;;;;;;;;22.10;44.30;;;;;;5134965;27;20374;-46
2022/01/16 15:15:13;;;;;;;;;;;22.10;44.30;;;;;;5135358;27;20355;-42
2022/01/16 15:17:43;;;;;;;;;;;22.10;44.30;;;;;;5135684;27;19945;-42